Jack Holland — WDF3615 — position and weather

sailwx.info

Track history (hours):
 
Tides and Currents Weather Stations Pressure Air Temp Water Temp Dewpoint Dewpoint Depression Visibility Wind Speed Wind Dir Waves Ship Positions

Jack Holland

Owner: Norfolk Tug Company, Norfolk, VA. More information available from US FCC via Universal Licensing System and Coast Guard Vessel Documentation Center.

Last reported at 2016-May-30 14:34 UTC. Time now 2016-May-30 14:35 UTC.
Position N 36°50' W 076°16'.

Length 22 m; draft 2.5 m.

Type: Tug. MMSI: 367442020.

Date/timePositionNaut miles runAvg speedWind from/ knotsBaromVisibWave heightAir tempDewpointWater temp
2016-May-30 14:34N 36°50' W 076°16'0 0.0
2016-May-30 13:33N 36°50' W 076°16'0 0.0
2016-May-30 12:33N 36°50' W 076°16'0 0.0
2016-May-30 11:20N 36°50' W 076°16'0 0.0
2016-May-30 08:18N 36°50' W 076°16'0 0.0
2016-May-30 07:21N 36°50' W 076°16'0 0.0
2016-May-30 05:32N 36°50' W 076°16'0 0.0
2016-May-30 04:31N 36°50' W 076°16'0 0.0
2016-May-30 03:26N 36°50' W 076°16'0 0.0
2016-May-29 23:15N 36°50' W 076°16'0 0.0
2016-May-29 22:20N 36°50' W 076°16'0 0.0
2016-May-29 18:32N 36°50' W 076°16'0 0.0
2016-May-29 17:30N 36°50' W 076°16'0 0.0
2016-May-29 16:25N 36°50' W 076°16'0 0.0
2016-May-29 14:09N 36°50' W 076°16'0 0.0
2016-May-29 11:33N 36°50' W 076°16'0 0.0
2016-May-29 10:23N 36°50' W 076°16'0 0.0
2016-May-29 09:30N 36°50' W 076°16'0 0.0
2016-May-29 06:11N 36°50' W 076°16'0 0.0
2016-May-29 05:33N 36°50' W 076°16'1 0.3
2016-May-29 01:33N 36°50' W 076°18'3 2.8
2016-May-29 00:33N 36°53' W 076°20'2 0.1
2016-May-28 04:33N 36°51' W 076°19'3 3.0
2016-May-28 03:33N 36°50' W 076°15'3 2.9
2016-May-28 02:34N 36°48' W 076°17'96 2.5
2016-May-26 12:34N 38°20' W 075°43'3 2.9
2016-May-26 11:28N 38°18' W 075°46'5 3.9
2016-May-26 10:09N 38°15' W 075°51'3 4.6
2016-May-26 09:34N 38°13' W 075°53'3 3.3
2016-May-26 08:34N 38°12' W 075°57'3 2.9
2016-May-26 07:33N 38°10' W 075°59'6 5.7
2016-May-26 06:33N 38°04' W 075°58'6 6.1
2016-May-26 05:34N 37°58' W 075°56'64 3.2
2016-May-25 09:16N 36°57' W 076°20'6 8.4
2016-May-25 08:34N 36°51' W 076°18'3 3.1
2016-May-25 07:34N 36°48' W 076°18'2 1.9
2016-May-25 06:34N 36°46' W 076°18'1 1.5
2016-May-25 05:33N 36°48' W 076°18'5 5.2
2016-May-25 04:34N 36°52' W 076°20'3 0.1
2016-May-23 23:11N 36°55' W 076°20'5 7.9
2016-May-23 22:34N 36°51' W 076°18'5 4.5
2016-May-23 21:33N 36°46' W 076°18'1 0.8
2016-May-23 20:33N 36°47' W 076°18'6 6.1
2016-May-23 19:33N 36°53' W 076°20'3 0.4
2016-May-23 12:32N 36°56' W 076°20'3 2.7
2016-May-23 11:33N 36°53' W 076°20'2 2.2
2016-May-23 10:33N 36°51' W 076°19'2 0.1
2016-May-22 09:16N 36°50' W 076°16'0 0.0
2016-May-22 08:33N 36°50' W 076°16'0 0.0
2016-May-22 07:23N 36°50' W 076°16'0 0.0
2016-May-21 22:26N 36°50' W 076°16'0 0.0
2016-May-21 21:22N 36°50' W 076°16'0 0.0
2016-May-21 20:31N 36°50' W 076°16'0 0.0
2016-May-21 19:28N 36°50' W 076°16'0 0.0
2016-May-21 18:33N 36°50' W 076°16'0 0.0
2016-May-21 17:33N 36°50' W 076°16'0 0.0
2016-May-21 15:31N 36°50' W 076°16'0 0.0
2016-May-21 07:33N 36°50' W 076°16'3 3.3
2016-May-21 06:33N 36°52' W 076°20'  
Track history (hours):
 
Tides and Currents Weather Stations Pressure Air Temp Water Temp Dewpoint Dewpoint Depression Visibility Wind Speed Wind Dir Waves Ship Positions

Jack Holland

Owner: Norfolk Tug Company, Norfolk, VA. More information available from US FCC via Universal Licensing System and Coast Guard Vessel Documentation Center.

Last reported at 2016-May-30 14:34 UTC. Time now 2016-May-30 14:35 UTC.
Position N 36°50' W 076°16'.

Length 22 m; draft 2.5 m.

Type: Tug. MMSI: 367442020.

Date/timePositionNaut miles runAvg speedWind from/ knotsBaromVisibWave heightAir tempDewpointWater temp
2016-May-30 14:34N 36°50' W 076°16'0 0.0
2016-May-30 13:33N 36°50' W 076°16'0 0.0
2016-May-30 12:33N 36°50' W 076°16'0 0.0
2016-May-30 11:20N 36°50' W 076°16'0 0.0
2016-May-30 08:18N 36°50' W 076°16'0 0.0
2016-May-30 07:21N 36°50' W 076°16'0 0.0
2016-May-30 05:32N 36°50' W 076°16'0 0.0
2016-May-30 04:31N 36°50' W 076°16'0 0.0
2016-May-30 03:26N 36°50' W 076°16'0 0.0
2016-May-29 23:15N 36°50' W 076°16'0 0.0
2016-May-29 22:20N 36°50' W 076°16'0 0.0
2016-May-29 18:32N 36°50' W 076°16'0 0.0
2016-May-29 17:30N 36°50' W 076°16'0 0.0
2016-May-29 16:25N 36°50' W 076°16'0 0.0
2016-May-29 14:09N 36°50' W 076°16'0 0.0
2016-May-29 11:33N 36°50' W 076°16'0 0.0
2016-May-29 10:23N 36°50' W 076°16'0 0.0
2016-May-29 09:30N 36°50' W 076°16'0 0.0
2016-May-29 06:11N 36°50' W 076°16'0 0.0
2016-May-29 05:33N 36°50' W 076°16'1 0.3
2016-May-29 01:33N 36°50' W 076°18'3 2.8
2016-May-29 00:33N 36°53' W 076°20'2 0.1
2016-May-28 04:33N 36°51' W 076°19'3 3.0
2016-May-28 03:33N 36°50' W 076°15'3 2.9
2016-May-28 02:34N 36°48' W 076°17'96 2.5
2016-May-26 12:34N 38°20' W 075°43'3 2.9
2016-May-26 11:28N 38°18' W 075°46'5 3.9
2016-May-26 10:09N 38°15' W 075°51'3 4.6
2016-May-26 09:34N 38°13' W 075°53'3 3.3
2016-May-26 08:34N 38°12' W 075°57'3 2.9
2016-May-26 07:33N 38°10' W 075°59'6 5.7
2016-May-26 06:33N 38°04' W 075°58'6 6.1
2016-May-26 05:34N 37°58' W 075°56'64 3.2
2016-May-25 09:16N 36°57' W 076°20'6 8.4
2016-May-25 08:34N 36°51' W 076°18'3 3.1
2016-May-25 07:34N 36°48' W 076°18'2 1.9
2016-May-25 06:34N 36°46' W 076°18'1 1.5
2016-May-25 05:33N 36°48' W 076°18'5 5.2
2016-May-25 04:34N 36°52' W 076°20'3 0.1
2016-May-23 23:11N 36°55' W 076°20'5 7.9
2016-May-23 22:34N 36°51' W 076°18'5 4.5
2016-May-23 21:33N 36°46' W 076°18'1 0.8
2016-May-23 20:33N 36°47' W 076°18'6 6.1
2016-May-23 19:33N 36°53' W 076°20'3 0.4
2016-May-23 12:32N 36°56' W 076°20'3 2.7
2016-May-23 11:33N 36°53' W 076°20'2 2.2
2016-May-23 10:33N 36°51' W 076°19'2 0.1
2016-May-22 09:16N 36°50' W 076°16'0 0.0
2016-May-22 08:33N 36°50' W 076°16'0 0.0
2016-May-22 07:23N 36°50' W 076°16'0 0.0
2016-May-21 22:26N 36°50' W 076°16'0 0.0
2016-May-21 21:22N 36°50' W 076°16'0 0.0
2016-May-21 20:31N 36°50' W 076°16'0 0.0
2016-May-21 19:28N 36°50' W 076°16'0 0.0
2016-May-21 18:33N 36°50' W 076°16'0 0.0
2016-May-21 17:33N 36°50' W 076°16'0 0.0
2016-May-21 15:31N 36°50' W 076°16'0 0.0
2016-May-21 07:33N 36°50' W 076°16'3 3.3
2016-May-21 06:33N 36°52' W 076°20'  

Dump ship's entire track history